createdAt,value
2019-03-23T00:00:57.231Z,9.67
2019-03-23T00:03:26.775Z,10.37
2019-03-23T00:05:56.152Z,11.63
2019-03-23T00:08:25.602Z,9.67
2019-03-23T00:10:55.532Z,11.67
2019-03-23T00:30:47.693Z,17.03
2019-03-23T00:33:17.066Z,21.90
2019-03-23T00:35:46.417Z,21.60
2019-03-23T00:38:15.788Z,23.27
2019-03-23T00:40:45.158Z,23.07
2019-03-23T00:43:14.675Z,25.73
2019-03-23T00:45:44.101Z,25.20
2019-03-23T00:48:13.526Z,26.07
2019-03-23T00:50:42.933Z,27.57
2019-03-23T00:53:12.365Z,28.43
2019-03-23T00:55:41.944Z,27.50
2019-03-23T00:58:11.367Z,26.57
2019-03-23T01:00:40.924Z,26.57
2019-03-23T01:03:10.417Z,23.30
2019-03-23T01:05:39.880Z,24.90
2019-03-23T01:08:09.657Z,28.40
2019-03-23T01:10:39.390Z,27.80
2019-03-23T01:13:08.828Z,28.27
2019-03-23T01:15:38.333Z,27.00
2019-03-23T01:18:08.112Z,28.07
2019-03-23T01:20:37.559Z,28.27
2019-03-23T01:23:06.958Z,31.33
2019-03-23T01:25:39.101Z,29.67
2019-03-23T01:28:08.481Z,31.23
2019-03-23T01:30:37.836Z,30.70
2019-03-23T01:33:07.205Z,30.30
2019-03-23T01:35:36.574Z,32.50
2019-03-23T01:38:05.980Z,32.03
2019-03-23T01:40:36.457Z,33.53
2019-03-23T01:43:05.943Z,31.93
2019-03-23T01:45:35.343Z,30.07
2019-03-23T01:48:04.892Z,31.17
2019-03-23T01:50:34.236Z,35.57
2019-03-23T01:53:04.060Z,32.87
2019-03-23T01:55:33.559Z,31.87
2019-03-23T01:58:02.928Z,34.27
2019-03-23T02:00:32.493Z,33.43
2019-03-23T02:03:01.885Z,34.20
2019-03-23T02:05:31.825Z,37.97
2019-03-23T02:08:01.471Z,34.30
2019-03-23T02:10:30.875Z,37.93
2019-03-23T02:13:00.212Z,36.90
2019-03-23T02:15:29.637Z,35.77
2019-03-23T02:17:59.090Z,37.80
2019-03-23T02:20:28.509Z,40.40
2019-03-23T02:22:57.879Z,37.17
2019-03-23T02:25:27.318Z,44.00
2019-03-23T02:27:56.993Z,43.17
2019-03-23T02:30:26.663Z,44.73
2019-03-23T02:32:56.014Z,45.57
2019-03-23T02:35:25.384Z,44.83
2019-03-23T02:37:54.768Z,48.17
2019-03-23T02:51:03.035Z,46.93
2019-03-23T02:53:32.390Z,45.80
2019-03-23T02:56:01.805Z,49.87
2019-03-23T02:58:31.237Z,51.73
2019-03-23T03:01:00.655Z,49.37
2019-03-23T03:03:30.075Z,52.47
2019-03-23T03:05:59.817Z,53.67
2019-03-23T03:08:29.360Z,58.97
2019-03-23T03:10:58.704Z,59.17
2019-03-23T03:13:28.779Z,59.23
2019-03-23T03:15:58.134Z,63.47
2019-03-23T03:18:27.585Z,61.90
2019-03-23T03:20:57.010Z,68.00
2019-03-23T03:23:26.399Z,63.30
2019-03-23T03:25:55.781Z,60.90
2019-03-23T03:28:25.161Z,64.30
2019-03-23T03:30:54.611Z,61.27
2019-03-23T03:33:23.970Z,58.70
2019-03-23T03:35:55.072Z,55.57
2019-03-23T03:38:24.424Z,63.37
2019-03-23T03:40:53.872Z,61.43
2019-03-23T03:43:23.324Z,65.40
2019-03-23T03:45:52.701Z,61.60
2019-03-23T03:48:22.057Z,56.50
2019-03-23T03:50:51.439Z,57.63
2019-03-23T03:53:20.850Z,56.90
2019-03-23T03:55:50.337Z,57.93
2019-03-23T03:58:19.677Z,59.57
2019-03-23T04:00:49.074Z,59.77
2019-03-23T04:03:18.743Z,57.67
2019-03-23T04:05:48.089Z,57.97
2019-03-23T04:08:17.447Z,59.73
2019-03-23T04:10:47.127Z,59.03
2019-03-23T04:13:16.506Z,59.97
2019-03-23T04:15:45.928Z,60.87
2019-03-23T04:18:15.571Z,64.70
2019-03-23T04:20:45.096Z,62.23
2019-03-23T04:23:14.832Z,65.77
2019-03-23T04:25:44.239Z,64.77
2019-03-23T04:28:13.620Z,68.40
2019-03-23T04:30:43.305Z,65.43
2019-03-23T04:33:12.732Z,78.00
2019-03-23T04:35:42.178Z,72.30
2019-03-23T04:38:22.260Z,78.70
2019-03-23T04:40:42.578Z,69.03
2019-03-23T04:43:11.984Z,74.93
2019-03-23T04:45:41.360Z,75.77
2019-03-23T04:48:10.862Z,70.63
2019-03-23T04:50:41.401Z,73.17
2019-03-23T04:53:10.750Z,73.60
2019-03-23T04:55:40.307Z,69.60
2019-03-23T04:58:09.683Z,73.27
2019-03-23T05:00:39.042Z,70.07
2019-03-23T05:03:08.502Z,73.40
2019-03-23T05:05:37.867Z,73.93
2019-03-23T05:08:07.282Z,71.53
2019-03-23T05:10:36.801Z,77.07
2019-03-23T05:13:06.224Z,78.07
2019-03-23T05:15:35.646Z,77.33
2019-03-23T05:18:05.195Z,70.60
2019-03-23T05:20:34.630Z,70.23
2019-03-23T05:23:04.553Z,75.87
2019-03-23T05:25:34.062Z,70.53
2019-03-23T05:28:03.530Z,75.70
2019-03-23T05:30:33.369Z,70.47
2019-03-23T05:33:02.715Z,65.93
2019-03-23T05:35:32.098Z,65.92
2019-03-23T05:38:01.450Z,66.53
2019-03-23T05:40:30.871Z,65.97
2019-03-23T05:43:00.247Z,70.83
2019-03-23T05:45:29.612Z,73.43
2019-03-23T05:47:59.010Z,68.97
2019-03-23T05:50:28.360Z,69.37
2019-03-23T05:52:57.711Z,70.43
2019-03-23T05:55:27.824Z,71.23
2019-03-23T05:57:57.289Z,78.97
2019-03-23T06:00:26.707Z,66.73
2019-03-23T06:02:56.117Z,71.17
2019-03-23T06:05:25.532Z,74.17
2019-03-23T06:07:55.334Z,71.57
2019-03-23T06:10:25.230Z,74.60
2019-03-23T06:12:55.335Z,76.00
2019-03-23T06:15:24.885Z,71.30
2019-03-23T06:17:54.264Z,71.97
2019-03-23T06:20:23.627Z,71.30
2019-03-23T06:22:53.187Z,79.07
2019-03-23T06:25:22.879Z,73.40
2019-03-23T06:27:52.337Z,79.80
2019-03-23T06:30:21.675Z,70.67
2019-03-23T06:32:51.062Z,68.70
2019-03-23T06:35:20.546Z,75.83
2019-03-23T06:37:50.079Z,75.37
2019-03-23T06:40:19.561Z,72.33
2019-03-23T06:42:59.147Z,75.43
2019-03-23T06:45:20.515Z,72.37
2019-03-23T06:47:49.871Z,77.07
2019-03-23T06:50:19.394Z,72.27
2019-03-23T06:52:49.106Z,69.70
2019-03-23T06:55:18.564Z,71.90
2019-03-23T06:57:48.316Z,69.40
2019-03-23T07:00:18.202Z,72.10
2019-03-23T07:02:48.062Z,77.33
2019-03-23T07:05:17.490Z,75.30
2019-03-23T07:07:47.068Z,75.17
2019-03-23T07:10:17.094Z,77.13
2019-03-23T07:12:46.566Z,75.10
2019-03-23T07:15:20.325Z,74.97
2019-03-23T07:17:47.976Z,75.33
2019-03-23T07:20:17.569Z,68.10
2019-03-23T07:22:47.360Z,75.63
2019-03-23T07:25:16.783Z,76.77
2019-03-23T07:27:46.588Z,66.50
2019-03-23T07:30:16.389Z,73.50
2019-03-23T07:32:46.373Z,76.27
2019-03-23T07:35:16.116Z,65.13
2019-03-23T07:37:45.645Z,69.87
2019-03-23T07:40:15.221Z,76.50
2019-03-23T07:42:44.741Z,79.23
2019-03-23T07:45:15.698Z,74.00
2019-03-23T07:47:45.135Z,71.30
2019-03-23T07:50:15.305Z,83.57
2019-03-23T07:52:45.279Z,71.90
2019-03-23T07:55:16.019Z,78.77
2019-03-23T07:57:45.558Z,78.90
2019-03-23T08:00:16.931Z,71.47
2019-03-23T08:02:46.480Z,76.10
2019-03-23T08:05:17.022Z,75.57
2019-03-23T08:07:46.776Z,69.50
2019-03-23T08:10:35.161Z,67.60
2019-03-23T08:13:04.903Z,63.97
2019-03-23T08:15:34.417Z,60.93
2019-03-23T08:18:03.907Z,63.60
2019-03-23T08:20:33.758Z,70.80
2019-03-23T08:23:03.253Z,67.90
2019-03-23T08:25:32.667Z,66.10
2019-03-23T08:28:02.144Z,60.87
2019-03-23T08:30:31.629Z,64.60
2019-03-23T08:33:01.068Z,60.23
2019-03-23T08:35:30.494Z,58.77
2019-03-23T08:38:00.169Z,62.63
2019-03-23T08:40:29.899Z,60.20
2019-03-23T08:42:59.336Z,58.23
2019-03-23T08:45:28.772Z,54.63
2019-03-23T08:47:58.287Z,60.53
2019-03-23T08:50:28.071Z,55.30
2019-03-23T08:52:57.427Z,56.00
2019-03-23T08:55:27.322Z,52.70
2019-03-23T08:57:56.766Z,56.40
2019-03-23T09:00:26.166Z,56.37
2019-03-23T09:02:55.631Z,59.67
2019-03-23T09:05:25.215Z,55.53
2019-03-23T09:07:55.340Z,56.40
2019-03-23T09:10:25.088Z,56.50
2019-03-23T09:12:54.931Z,55.50
2019-03-23T09:15:24.653Z,54.70
2019-03-23T09:17:54.092Z,52.00
2019-03-23T09:20:24.381Z,53.30
2019-03-23T09:22:53.756Z,52.40
2019-03-23T09:25:23.130Z,55.93
2019-03-23T09:27:52.658Z,51.27
2019-03-23T09:30:22.127Z,52.80
2019-03-23T09:32:51.504Z,48.60
2019-03-23T09:35:21.411Z,51.77
2019-03-23T09:37:50.920Z,52.30
2019-03-23T09:40:20.358Z,51.47
2019-03-23T09:42:50.169Z,49.10
2019-03-23T09:45:19.840Z,47.27
2019-03-23T09:47:49.238Z,52.27
2019-03-23T09:50:18.700Z,44.87
2019-03-23T09:52:48.078Z,46.57
2019-03-23T09:55:18.275Z,47.67
2019-03-23T09:57:47.718Z,48.57
2019-03-23T10:00:17.856Z,45.57
2019-03-23T10:02:47.384Z,49.07
2019-03-23T10:05:17.731Z,46.20
2019-03-23T10:07:47.144Z,45.13
2019-03-23T10:10:21.814Z,48.00
2019-03-23T10:12:48.096Z,43.13
2019-03-23T10:15:18.173Z,46.70
2019-03-23T10:17:47.669Z,43.73
2019-03-23T10:20:17.632Z,46.00
2019-03-23T10:22:47.028Z,49.77
2019-03-23T10:25:16.538Z,48.77
2019-03-23T10:27:46.156Z,49.60
2019-03-23T10:30:15.689Z,48.00
2019-03-23T10:32:45.159Z,51.03
2019-03-23T10:35:17.765Z,51.27
2019-03-23T10:37:47.485Z,49.70
2019-03-23T10:40:17.410Z,52.53
2019-03-23T10:42:46.886Z,51.70
2019-03-23T10:45:16.434Z,46.23
2019-03-23T10:47:50.858Z,52.23
2019-03-23T10:50:20.387Z,51.73
2019-03-23T10:52:50.167Z,47.57
2019-03-23T10:55:19.733Z,46.40
2019-03-23T10:57:49.217Z,46.13
2019-03-23T11:00:18.946Z,48.93
2019-03-23T11:02:48.421Z,48.33
2019-03-23T11:05:18.566Z,46.13
2019-03-23T11:07:48.375Z,50.70
2019-03-23T11:10:18.039Z,52.30
2019-03-23T11:12:47.546Z,47.80
2019-03-23T11:15:16.920Z,47.80
2019-03-23T11:17:46.624Z,48.13
2019-03-23T11:20:16.262Z,47.40
2019-03-23T11:22:45.763Z,49.53
2019-03-23T11:25:16.174Z,47.73
2019-03-23T11:27:45.932Z,49.10
2019-03-23T11:30:15.679Z,48.30
2019-03-23T11:32:45.055Z,48.30
2019-03-23T11:35:14.600Z,50.40
2019-03-23T11:37:44.372Z,49.87
2019-03-23T11:40:14.048Z,47.10
2019-03-23T11:42:49.881Z,49.80
2019-03-23T11:45:14.832Z,47.07
2019-03-23T11:47:44.234Z,49.60
2019-03-23T11:50:13.725Z,49.67
2019-03-23T11:52:43.163Z,50.13
2019-03-23T11:55:13.003Z,47.27
2019-03-23T11:57:43.074Z,53.23
2019-03-23T12:00:13.555Z,57.30
2019-03-23T12:02:43.401Z,52.57
2019-03-23T12:05:13.355Z,50.33
2019-03-23T12:07:43.063Z,52.10
2019-03-23T12:10:12.918Z,53.73
2019-03-23T12:12:43.622Z,53.00
2019-03-23T12:15:13.936Z,51.73
2019-03-23T12:17:43.614Z,54.83
2019-03-23T12:20:13.302Z,50.87
2019-03-23T12:22:42.783Z,52.00
2019-03-23T12:25:12.394Z,54.23
2019-03-23T12:27:42.203Z,53.00
2019-03-23T12:30:13.956Z,51.57
2019-03-23T12:32:43.496Z,52.20
2019-03-23T12:35:13.582Z,56.40
2019-03-23T12:37:43.128Z,52.30
2019-03-23T12:40:12.846Z,51.50
2019-03-23T12:42:42.263Z,54.57
2019-03-23T12:45:12.570Z,60.80
2019-03-23T12:47:42.376Z,54.60
2019-03-23T12:50:12.475Z,56.00
2019-03-23T12:52:41.887Z,56.70
2019-03-23T12:55:11.935Z,54.07
2019-03-23T12:57:41.730Z,52.43
2019-03-23T13:00:12.271Z,53.30
2019-03-23T13:02:41.741Z,51.73
2019-03-23T13:05:11.450Z,49.47
2019-03-23T13:07:41.427Z,49.30
2019-03-23T13:10:11.681Z,51.30
2019-03-23T13:12:41.558Z,46.30
2019-03-23T13:15:11.928Z,44.00
2019-03-23T13:17:41.658Z,41.90
2019-03-23T13:20:12.459Z,40.83
2019-03-23T13:22:41.989Z,43.73
2019-03-23T13:25:13.333Z,40.57
2019-03-23T13:27:42.851Z,40.70
2019-03-23T13:30:13.043Z,43.03
2019-03-23T13:32:42.930Z,42.73
2019-03-23T13:35:12.759Z,41.07
2019-03-23T13:37:42.518Z,43.23
2019-03-23T13:40:12.310Z,43.20
2019-03-23T13:42:41.862Z,45.73
2019-03-23T13:45:11.938Z,35.83
2019-03-23T13:47:41.483Z,40.10
2019-03-23T13:50:12.770Z,41.53
2019-03-23T13:52:42.447Z,41.40
2019-03-23T13:55:33.460Z,39.60
2019-03-23T13:58:13.715Z,39.37
2019-03-23T14:00:43.542Z,40.20
2019-03-23T14:03:13.155Z,42.77
2019-03-23T14:05:42.739Z,39.60
2019-03-23T14:08:12.212Z,43.60
2019-03-23T14:10:41.678Z,41.90
2019-03-23T14:13:11.110Z,43.27
2019-03-23T14:15:40.568Z,43.70
2019-03-23T14:18:10.059Z,44.57
2019-03-23T14:20:39.546Z,44.13
2019-03-23T14:23:09.029Z,40.80
2019-03-23T14:25:38.386Z,42.37
2019-03-23T14:28:08.262Z,42.73
2019-03-23T14:30:38.008Z,45.33
2019-03-23T14:33:07.442Z,45.13
2019-03-23T14:35:37.212Z,40.47
2019-03-23T14:38:06.704Z,37.40
2019-03-23T14:40:36.539Z,38.30
2019-03-23T14:43:06.354Z,43.50
2019-03-23T14:45:37.052Z,42.80
2019-03-23T14:48:06.662Z,38.00
2019-03-23T14:50:36.407Z,41.27
2019-03-23T14:53:06.238Z,40.97
2019-03-23T14:55:37.440Z,41.47
2019-03-23T14:58:07.099Z,41.77
2019-03-23T15:00:36.737Z,36.30
2019-03-23T15:03:06.290Z,39.60
2019-03-23T15:05:35.743Z,39.97
2019-03-23T15:08:05.301Z,41.90
2019-03-23T15:10:35.239Z,43.07
2019-03-23T15:13:04.795Z,40.80
2019-03-23T15:15:34.220Z,40.83
2019-03-23T15:18:13.227Z,43.07
2019-03-23T15:20:42.623Z,43.20
2019-03-23T15:23:12.198Z,43.97
2019-03-23T15:25:41.819Z,41.60
2019-03-23T15:28:12.090Z,39.10
2019-03-23T15:30:44.803Z,44.20
2019-03-23T15:33:14.268Z,42.67
2019-03-23T15:35:43.769Z,40.03
2019-03-23T15:38:13.381Z,44.73
2019-03-23T15:40:42.739Z,42.20
2019-03-23T15:43:12.235Z,45.57
2019-03-23T15:45:41.705Z,45.90
2019-03-23T15:48:11.391Z,44.37
2019-03-23T15:50:41.119Z,43.40
2019-03-23T15:53:10.731Z,43.73
2019-03-23T15:55:40.145Z,45.00
2019-03-23T15:58:09.641Z,46.40
2019-03-23T16:00:39.006Z,42.87
2019-03-23T16:03:08.578Z,45.80
2019-03-23T16:05:38.030Z,39.87
2019-03-23T16:08:07.476Z,45.00
2019-03-23T16:10:36.835Z,41.40
2019-03-23T16:13:06.283Z,43.17
2019-03-23T16:15:35.674Z,39.37
2019-03-23T16:18:05.163Z,40.70
2019-03-23T16:20:34.582Z,42.93
2019-03-23T16:23:03.999Z,46.17
2019-03-23T16:25:33.614Z,44.07
2019-03-23T16:28:03.087Z,46.03
2019-03-23T16:30:33.570Z,43.57
2019-03-23T16:33:03.227Z,41.90
2019-03-23T16:35:33.402Z,45.57
2019-03-23T16:38:02.874Z,42.30
2019-03-23T16:40:32.346Z,42.87
2019-03-23T16:43:02.073Z,43.50
2019-03-23T16:45:31.535Z,42.23
2019-03-23T16:48:00.957Z,42.50
2019-03-23T16:50:30.395Z,42.90
2019-03-23T16:52:59.831Z,45.87
2019-03-23T16:55:29.202Z,44.10
2019-03-23T16:57:58.619Z,45.37
2019-03-23T17:00:37.568Z,44.17
2019-03-23T17:03:07.593Z,45.17
2019-03-23T17:05:37.057Z,46.37
2019-03-23T17:08:06.694Z,43.93
2019-03-23T17:10:36.233Z,45.10
2019-03-23T17:13:05.763Z,47.07
2019-03-23T17:15:35.391Z,44.50
2019-03-23T17:18:05.308Z,47.53
2019-03-23T17:20:34.873Z,44.27
2019-03-23T17:23:04.379Z,45.17
2019-03-23T17:25:34.189Z,44.00
2019-03-23T17:28:03.539Z,45.27
2019-03-23T17:30:32.995Z,47.97
2019-03-23T17:33:02.493Z,46.60
2019-03-23T17:35:31.903Z,44.83
2019-03-23T17:38:01.374Z,48.13
2019-03-23T17:40:30.778Z,45.67
2019-03-23T17:43:05.971Z,45.80
2019-03-23T17:45:31.327Z,46.07
2019-03-23T17:48:00.802Z,47.33
2019-03-23T17:50:30.660Z,44.27
2019-03-23T17:53:00.230Z,47.10
2019-03-23T17:55:29.734Z,45.20
2019-03-23T17:57:59.197Z,47.57
2019-03-23T18:00:29.613Z,47.67
2019-03-23T18:02:59.148Z,45.67
2019-03-23T18:05:28.647Z,46.90
2019-03-23T18:07:58.093Z,47.67
2019-03-23T18:10:28.356Z,47.83
2019-03-23T18:12:58.566Z,46.47
2019-03-23T18:15:28.209Z,49.93
2019-03-23T18:17:58.102Z,49.03
2019-03-23T18:20:27.953Z,46.60
2019-03-23T18:22:57.477Z,47.70
2019-03-23T18:25:26.978Z,46.30
2019-03-23T18:27:56.574Z,47.83
2019-03-23T18:30:44.776Z,47.83
2019-03-23T18:33:14.563Z,45.90
2019-03-23T18:35:44.142Z,48.47
2019-03-23T18:38:13.677Z,45.50
2019-03-23T18:40:43.337Z,47.03
2019-03-23T18:43:13.260Z,51.47
2019-03-23T18:45:42.813Z,46.30
2019-03-23T18:48:12.455Z,46.33
2019-03-23T18:50:42.868Z,48.80
2019-03-23T18:53:12.686Z,49.90
2019-03-23T18:55:42.528Z,47.43
2019-03-23T18:58:12.112Z,44.07
2019-03-23T19:00:42.849Z,47.67
2019-03-23T19:03:12.735Z,46.10
2019-03-23T19:05:42.347Z,49.30
2019-03-23T19:08:12.253Z,47.90
2019-03-23T19:10:42.108Z,47.30
2019-03-23T19:13:11.939Z,50.97
2019-03-23T19:15:41.495Z,49.57
2019-03-23T19:18:10.924Z,49.07
2019-03-23T19:20:40.418Z,50.10
2019-03-23T19:23:09.944Z,52.10
2019-03-23T19:25:39.928Z,46.03
2019-03-23T19:28:09.493Z,49.63
2019-03-23T19:30:38.993Z,46.03
2019-03-23T19:33:08.759Z,46.43
2019-03-23T19:35:38.318Z,46.57
2019-03-23T19:38:08.086Z,51.07
2019-03-23T19:40:37.604Z,48.83
2019-03-23T19:43:07.154Z,45.90
2019-03-23T19:45:36.588Z,49.47
2019-03-23T19:48:06.119Z,51.30
2019-03-23T19:50:36.095Z,49.10
2019-03-23T19:53:05.630Z,50.00
2019-03-23T19:55:35.149Z,49.47
2019-03-23T19:58:04.758Z,50.13
2019-03-23T20:00:34.176Z,46.60
2019-03-23T20:03:03.587Z,48.13
2019-03-23T20:05:33.385Z,51.80
2019-03-23T20:08:02.967Z,52.10
2019-03-23T20:10:32.455Z,50.03
2019-03-23T20:13:02.111Z,48.73
2019-03-23T20:15:32.006Z,49.70
2019-03-23T20:18:01.666Z,46.97
2019-03-23T20:20:31.115Z,45.67
2019-03-23T20:23:00.504Z,47.63
2019-03-23T20:25:30.247Z,50.67
2019-03-23T20:27:59.889Z,49.27
2019-03-23T20:30:29.350Z,48.30
2019-03-23T20:32:58.819Z,54.57
2019-03-23T20:35:28.196Z,48.27
2019-03-23T20:37:57.568Z,49.20
2019-03-23T20:40:26.979Z,47.83
2019-03-23T20:42:56.435Z,50.53
2019-03-23T20:45:31.077Z,43.10
2019-03-23T20:48:00.818Z,45.20
2019-03-23T20:50:33.424Z,49.40
2019-03-23T20:53:03.036Z,46.43
2019-03-23T20:55:32.782Z,47.20
2019-03-23T20:58:02.335Z,46.70
2019-03-23T21:00:32.096Z,45.53
2019-03-23T21:03:01.691Z,47.40
2019-03-23T21:05:34.194Z,42.20
2019-03-23T21:08:02.447Z,51.77
2019-03-23T21:10:31.826Z,50.17
2019-03-23T21:13:01.359Z,48.90
2019-03-23T21:15:30.907Z,46.57
2019-03-23T21:18:00.297Z,46.37
2019-03-23T21:20:29.731Z,50.20
2019-03-23T21:22:59.649Z,49.37
2019-03-23T21:25:29.102Z,50.40
2019-03-23T21:27:58.564Z,46.77
2019-03-23T21:30:28.048Z,48.90
2019-03-23T21:32:57.408Z,48.07
2019-03-23T21:35:26.780Z,48.47
2019-03-23T21:37:56.287Z,52.37
2019-03-23T21:40:25.680Z,48.17
2019-03-23T21:42:55.060Z,45.57
2019-03-23T21:45:24.547Z,50.13
2019-03-23T21:47:54.067Z,50.23
2019-03-23T21:50:23.731Z,50.53
2019-03-23T21:52:53.186Z,48.70
2019-03-23T21:55:22.563Z,47.40
2019-03-23T21:57:52.357Z,50.73
2019-03-23T22:00:32.999Z,47.73
2019-03-23T22:03:03.601Z,45.83
2019-03-23T22:05:33.159Z,47.93
2019-03-23T22:08:02.748Z,50.00
2019-03-23T22:10:32.174Z,50.93
2019-03-23T22:13:01.615Z,51.23
2019-03-23T22:15:33.095Z,48.10
2019-03-23T22:18:02.830Z,49.57
2019-03-23T22:20:32.321Z,49.30
2019-03-23T22:23:02.019Z,48.20
2019-03-23T22:25:31.478Z,51.50
2019-03-23T22:28:00.926Z,50.00
2019-03-23T22:30:30.403Z,51.60
2019-03-23T22:32:59.815Z,51.93
2019-03-23T22:35:29.272Z,50.93
2019-03-23T22:37:58.690Z,53.13
2019-03-23T22:40:28.376Z,50.67
2019-03-23T22:42:57.778Z,51.47
2019-03-23T22:45:27.496Z,51.97
2019-03-23T22:47:56.877Z,50.83
2019-03-23T22:50:26.471Z,49.27
2019-03-23T22:52:55.840Z,53.03
2019-03-23T22:55:25.350Z,53.43
2019-03-23T22:57:54.880Z,52.33
2019-03-23T23:00:44.276Z,54.40
2019-03-23T23:03:13.986Z,52.77
2019-03-23T23:05:44.525Z,52.97
2019-03-23T23:08:14.047Z,51.17
2019-03-23T23:10:43.620Z,55.47
2019-03-23T23:13:13.160Z,53.50
2019-03-23T23:15:42.687Z,54.30
2019-03-23T23:18:12.286Z,51.00
2019-03-23T23:20:41.985Z,49.27
2019-03-23T23:23:11.462Z,54.00
2019-03-23T23:25:40.934Z,51.33
2019-03-23T23:28:10.303Z,53.10
2019-03-23T23:30:39.691Z,50.20
2019-03-23T23:33:09.241Z,49.90
2019-03-23T23:35:39.014Z,57.13
2019-03-23T23:38:08.443Z,51.67
2019-03-23T23:40:37.925Z,51.20
2019-03-23T23:43:07.396Z,45.33
2019-03-23T23:45:37.128Z,44.67
2019-03-23T23:48:06.621Z,50.10
2019-03-23T23:50:36.055Z,48.17
2019-03-23T23:53:05.604Z,48.37
2019-03-23T23:55:35.250Z,48.27
2019-03-23T23:58:04.763Z,45.07
